createdAt,value
2023-02-03T00:03:31.085Z,101833.81
2023-02-03T00:08:32.681Z,101834.63
2023-02-03T00:13:35.069Z,101838.88
2023-02-03T00:18:36.672Z,101839.75
2023-02-03T00:23:38.061Z,101820.25
2023-02-03T00:28:39.670Z,101812.59
2023-02-03T00:33:41.041Z,101808.38
2023-02-03T00:38:42.479Z,101816.84
2023-02-03T00:43:44.024Z,101812.59
2023-02-03T00:48:45.392Z,101826.09
2023-02-03T00:53:47.857Z,101821.03
2023-02-03T00:58:49.338Z,101832.03
2023-02-03T01:03:50.784Z,101819.38
2023-02-03T01:08:52.712Z,101816.88
2023-02-03T01:13:56.007Z,101805.88
2023-02-03T01:18:57.620Z,101788.97
2023-02-03T01:24:00.720Z,101775.41
2023-02-03T01:29:02.626Z,101781.31
2023-02-03T01:34:04.020Z,101789.78
2023-02-03T01:39:06.032Z,101816.81
2023-02-03T01:44:32.294Z,101826.94
2023-02-03T01:49:36.610Z,101787.22
2023-02-03T01:54:43.737Z,101785.53
2023-02-03T01:59:46.039Z,101762.69
2023-02-03T02:05:08.108Z,101757.59
2023-02-03T02:10:10.253Z,101731.38
2023-02-03T02:15:11.743Z,101699.22
2023-02-03T02:21:00.323Z,101721.13
2023-02-03T02:26:15.814Z,101725.31
2023-02-03T02:31:36.247Z,101727.88
2023-02-03T02:36:43.743Z,101709.34
2023-02-03T02:42:05.237Z,101719.50
2023-02-03T02:47:16.352Z,101711.03
2023-02-03T02:52:18.913Z,101714.44
2023-02-03T02:57:24.164Z,101708.56
2023-02-03T03:02:36.646Z,101709.47
2023-02-03T03:07:48.557Z,101684.13
2023-02-03T03:12:54.809Z,101674.03
2023-02-03T03:18:13.281Z,101678.22
2023-02-03T03:23:28.939Z,101665.56
2023-02-03T03:28:42.329Z,101677.41
2023-02-03T03:33:44.301Z,101704.44
2023-02-03T03:38:53.662Z,101712.91
2023-02-03T03:44:00.828Z,101720.50
2023-02-03T03:49:05.377Z,101736.53
2023-02-03T03:54:14.743Z,101757.66
2023-02-03T03:59:19.215Z,101749.25
2023-02-03T04:04:24.233Z,101765.31
2023-02-03T04:09:25.863Z,101784.75
2023-02-03T04:14:30.184Z,101787.31
2023-02-03T04:19:31.674Z,101769.56
2023-02-03T04:24:33.091Z,101743.38
2023-02-03T04:29:34.499Z,101749.25
2023-02-03T04:34:35.886Z,101745.81
2023-02-03T04:39:37.439Z,101745.81
2023-02-03T04:44:38.869Z,101744.09
2023-02-03T04:49:40.313Z,101739.03
2023-02-03T04:54:41.831Z,101747.44
2023-02-03T04:59:43.245Z,101722.94
2023-02-03T05:04:44.667Z,101740.66
2023-02-03T05:09:46.384Z,101743.22
2023-02-03T05:14:47.822Z,101740.72
2023-02-03T05:19:49.228Z,101744.97
2023-02-03T05:24:50.636Z,101746.66
2023-02-03T05:29:52.113Z,101724.75
2023-02-03T05:34:53.499Z,101732.34
2023-02-03T05:40:14.896Z,101728.13
2023-02-03T05:45:17.071Z,101745.88
2023-02-03T05:50:18.544Z,101747.56
2023-02-03T05:55:19.936Z,101725.59
2023-02-03T06:00:22.245Z,101734.06
2023-02-03T06:05:24.966Z,101745.88
2023-02-03T06:10:27.306Z,101723.91
2023-02-03T06:15:28.923Z,101712.94
2023-02-03T06:20:30.701Z,101725.59
2023-02-03T06:25:32.793Z,101725.56
2023-02-03T06:30:34.393Z,101739.91
2023-02-03T06:35:36.404Z,101712.06
2023-02-03T06:40:37.841Z,101711.19
2023-02-03T06:45:39.249Z,101709.50
2023-02-03T06:50:41.053Z,101717.94
2023-02-03T06:55:42.485Z,101706.13
2023-02-03T07:00:43.904Z,101731.41
2023-02-03T07:05:45.349Z,101707.75
2023-02-03T07:10:46.738Z,101686.63
2023-02-03T07:15:48.194Z,101672.25
2023-02-03T07:20:49.768Z,101670.56
2023-02-03T07:25:51.146Z,101680.69
2023-02-03T07:30:52.648Z,101668.91
2023-02-03T07:35:54.935Z,101700.16
2023-02-03T07:40:56.649Z,101713.69
2023-02-03T07:45:58.196Z,101734.81
2023-02-03T07:50:59.661Z,101745.81
2023-02-03T07:56:02.645Z,101752.59
2023-02-03T08:01:14.388Z,101748.41
2023-02-03T08:06:16.382Z,101766.97
2023-02-03T08:11:18.287Z,101783.88
2023-02-03T08:16:19.809Z,101758.56
2023-02-03T08:21:21.276Z,101763.66
2023-02-03T08:26:23.098Z,101760.28
2023-02-03T08:31:24.702Z,101793.25
2023-02-03T08:36:26.210Z,101803.44
2023-02-03T08:41:27.761Z,101781.47
2023-02-03T08:46:29.221Z,101794.16
2023-02-03T08:51:30.765Z,101772.16
2023-02-03T08:56:34.079Z,101769.63
2023-02-03T09:01:35.530Z,101770.50
2023-02-03T09:06:37.347Z,101773.03
2023-02-03T09:11:40.802Z,101761.25
2023-02-03T09:16:42.339Z,101770.63
2023-02-03T09:21:45.967Z,101792.66
2023-02-03T09:26:48.693Z,101775.78
2023-02-03T09:31:53.792Z,101780.00
2023-02-03T09:36:55.210Z,101768.13
2023-02-03T09:42:34.934Z,101757.13
2023-02-03T09:47:42.161Z,101777.41
2023-02-03T09:52:44.300Z,101776.56
2023-02-03T09:58:03.599Z,101753.78
2023-02-03T10:03:12.183Z,101740.25
2023-02-03T10:08:19.514Z,101743.63
2023-02-03T10:13:37.262Z,101749.56
2023-02-03T10:18:45.983Z,101776.66
2023-02-03T10:23:48.934Z,101769.84
2023-02-03T10:28:58.722Z,101792.72
2023-02-03T10:34:08.325Z,101778.31
2023-02-03T10:39:21.876Z,101763.94
2023-02-03T10:44:30.926Z,101757.19
2023-02-03T10:49:32.463Z,101736.00
2023-02-03T10:54:35.858Z,101746.19
2023-02-03T10:59:42.450Z,101729.25
2023-02-03T11:04:43.853Z,101730.94
2023-02-03T11:09:45.259Z,101745.34
2023-02-03T11:14:52.068Z,101747.84
2023-02-03T11:19:56.220Z,101736.00
2023-02-03T11:24:59.217Z,101737.69
2023-02-03T11:30:14.749Z,101715.72
2023-02-03T11:35:23.595Z,101717.44
2023-02-03T11:40:27.713Z,101716.56
2023-02-03T11:45:29.677Z,101720.81
2023-02-03T11:50:46.541Z,101650.56
2023-02-03T11:56:14.856Z,101667.47
2023-02-03T12:01:18.985Z,101679.28
2023-02-03T12:06:23.346Z,101687.75
2023-02-03T12:11:51.033Z,101683.53
2023-02-03T12:17:08.113Z,101695.38
2023-02-03T12:22:29.532Z,101688.53
2023-02-03T12:27:58.365Z,101687.66
2023-02-03T12:33:28.905Z,101715.59
2023-02-03T12:38:30.210Z,101705.38
2023-02-03T12:43:41.935Z,101717.25
2023-02-03T12:49:04.996Z,101702.78
2023-02-03T12:54:31.051Z,101701.09
2023-02-03T12:59:34.362Z,101670.59
2023-02-03T13:04:47.386Z,101633.25
2023-02-03T13:10:05.643Z,101623.78
2023-02-03T13:15:22.317Z,101610.91
2023-02-03T13:20:27.098Z,101620.97
2023-02-03T13:25:50.399Z,101621.00
2023-02-03T13:31:20.436Z,101622.78
2023-02-03T13:36:51.555Z,101622.00
2023-02-03T13:42:16.570Z,101596.66
2023-02-03T13:47:24.714Z,101588.19
2023-02-03T13:52:36.369Z,101611.06
2023-02-03T13:57:38.720Z,101611.13
2023-02-03T14:02:53.232Z,101609.44
2023-02-03T14:07:54.798Z,101616.25
2023-02-03T14:12:59.596Z,101617.97
2023-02-03T14:18:31.441Z,101612.06
2023-02-03T14:23:42.793Z,101617.13
2023-02-03T14:28:46.444Z,101610.38
2023-02-03T14:33:47.778Z,101619.69
2023-02-03T14:38:50.221Z,101618.91
2023-02-03T14:44:16.047Z,101611.34
2023-02-03T14:49:37.761Z,101627.44
2023-02-03T14:55:16.215Z,101656.25
2023-02-03T15:00:21.426Z,101668.13
2023-02-03T15:05:24.243Z,101652.91
2023-02-03T15:10:38.602Z,101646.97
2023-02-03T15:15:40.699Z,101649.50
2023-02-03T15:20:47.001Z,101635.97
2023-02-03T15:26:03.793Z,101634.25
2023-02-03T15:31:17.648Z,101637.66
2023-02-03T15:36:24.130Z,101670.69
2023-02-03T15:41:26.528Z,101696.09
2023-02-03T15:46:38.497Z,101696.13
2023-02-03T15:51:51.811Z,101704.59
2023-02-03T15:57:02.885Z,101708.00
2023-02-03T16:02:19.446Z,101714.78
2023-02-03T16:07:25.048Z,101700.38
2023-02-03T16:12:31.673Z,101691.06
2023-02-03T16:17:36.629Z,101706.34
2023-02-03T16:22:39.890Z,101695.31
2023-02-03T16:27:45.440Z,101695.31
2023-02-03T16:33:27.159Z,101713.09
2023-02-03T16:38:47.105Z,101716.50
2023-02-03T16:44:07.083Z,101697.03
2023-02-03T16:49:27.035Z,101697.88
2023-02-03T16:54:28.499Z,101696.16
2023-02-03T16:59:29.934Z,101702.13
2023-02-03T17:04:31.371Z,101689.44
2023-02-03T17:09:35.807Z,101680.97
2023-02-03T17:14:37.216Z,101684.34
2023-02-03T17:19:38.609Z,101670.75
2023-02-03T17:24:40.024Z,101692.78
2023-02-03T17:29:41.540Z,101700.41
2023-02-03T17:34:43.803Z,101704.63
2023-02-03T17:55:42.161Z,101728.34
2023-02-03T18:00:43.552Z,101711.41
2023-02-03T18:05:52.093Z,101706.34
2023-02-03T18:10:53.532Z,101714.78
2023-02-03T18:15:58.117Z,101729.19
2023-02-03T18:20:59.505Z,101734.28
2023-02-03T18:26:00.934Z,101725.81
2023-02-03T18:37:24.677Z,101758.00
2023-02-03T18:42:26.116Z,101759.66
2023-02-03T18:47:27.621Z,101760.53
2023-02-03T18:52:29.106Z,101767.28
2023-02-03T18:57:30.579Z,101774.91
2023-02-03T19:02:32.197Z,101786.78
2023-02-03T19:07:33.644Z,101779.16
2023-02-03T19:12:35.076Z,101776.63
2023-02-03T19:17:37.153Z,101780.84
2023-02-03T19:22:38.735Z,101769.84
2023-02-03T19:27:40.163Z,101786.78
2023-02-03T19:32:41.594Z,101794.41
2023-02-03T19:37:43.045Z,101801.16
2023-02-03T19:42:44.438Z,101805.41
2023-02-03T19:47:45.844Z,101804.56
2023-02-03T19:52:48.590Z,101816.44
2023-02-03T19:57:50.058Z,101822.34
2023-02-03T20:02:51.460Z,101820.66
2023-02-03T20:07:53.221Z,101827.41
2023-02-03T20:12:55.227Z,101834.19
2023-02-03T20:17:56.685Z,101831.66
2023-02-03T20:22:58.428Z,101845.97
2023-02-03T20:28:02.461Z,101838.38
2023-02-03T20:33:04.775Z,101828.25
2023-02-03T20:38:06.293Z,101822.31
2023-02-03T20:43:20.279Z,101820.63
2023-02-03T20:48:25.431Z,101815.53
2023-02-03T20:53:27.002Z,101816.41
2023-02-03T20:58:32.508Z,101814.69
2023-02-03T21:03:53.668Z,101820.63
2023-02-03T21:09:01.755Z,101829.91
2023-02-03T21:14:06.388Z,101832.47
2023-02-03T21:19:14.696Z,101836.69
2023-02-03T21:24:31.962Z,101823.09
2023-02-03T21:29:34.387Z,101817.16
2023-02-03T21:34:37.527Z,101821.41
2023-02-03T21:39:38.937Z,101826.53
2023-02-03T21:44:40.487Z,101822.28
2023-02-03T21:49:41.946Z,101828.19
2023-02-03T21:54:44.421Z,101823.97
2023-02-03T21:59:47.017Z,101833.28
2023-02-03T22:04:48.398Z,101827.34
2023-02-03T22:09:51.485Z,101832.44
2023-02-03T22:14:52.910Z,101832.44
2023-02-03T22:19:54.334Z,101834.97
2023-02-03T22:24:55.724Z,101845.13
2023-02-03T22:29:57.120Z,101846.81
2023-02-03T22:34:58.583Z,101835.00
2023-02-03T22:40:00.214Z,101838.38
2023-02-03T22:45:01.660Z,101843.44
2023-02-03T22:50:04.722Z,101842.63
2023-02-03T22:55:07.992Z,101854.41
2023-02-03T23:00:11.013Z,101849.38
2023-02-03T23:05:12.475Z,101852.78
2023-02-03T23:10:18.058Z,101846.84
2023-02-03T23:15:19.572Z,101845.97
2023-02-03T23:20:21.728Z,101850.25
2023-02-03T23:25:23.263Z,101858.69
2023-02-03T23:30:24.667Z,101867.16
2023-02-03T23:35:44.632Z,101873.09
2023-02-03T23:40:46.262Z,101864.63
2023-02-03T23:45:47.780Z,101869.69
2023-02-03T23:50:49.313Z,101869.69
2023-02-03T23:55:50.739Z,101873.06
